createdAt,value
2023-05-13T00:02:08.203Z,2.27
2023-05-13T00:04:36.111Z,3.37
2023-05-13T00:07:03.895Z,2.90
2023-05-13T00:09:31.681Z,2.30
2023-05-13T00:12:00.243Z,3.00
2023-05-13T00:14:28.110Z,3.37
2023-05-13T00:16:56.429Z,3.17
2023-05-13T00:19:25.596Z,3.33
2023-05-13T00:21:53.365Z,3.40
2023-05-13T00:24:21.752Z,3.00
2023-05-13T00:26:49.557Z,3.87
2023-05-13T00:29:17.323Z,3.57
2023-05-13T00:31:45.103Z,3.43
2023-05-13T00:34:12.919Z,3.40
2023-05-13T00:36:42.051Z,3.27
2023-05-13T00:39:09.823Z,3.53
2023-05-13T00:41:37.725Z,3.30
2023-05-13T00:44:05.914Z,4.20
2023-05-13T00:46:34.364Z,3.40
2023-05-13T00:49:03.105Z,4.23
2023-05-13T00:51:32.469Z,5.13
2023-05-13T00:54:01.588Z,4.10
2023-05-13T00:56:29.378Z,4.90
2023-05-13T00:58:57.214Z,4.37
2023-05-13T01:01:32.903Z,4.60
2023-05-13T01:04:10.304Z,3.80
2023-05-13T01:06:51.946Z,4.33
2023-05-13T01:09:31.522Z,4.20
2023-05-13T01:12:08.604Z,4.50
2023-05-13T01:14:41.314Z,5.27
2023-05-13T01:17:13.032Z,4.93
2023-05-13T01:19:44.964Z,4.47
2023-05-13T01:22:14.165Z,4.50
2023-05-13T01:24:41.967Z,5.33
2023-05-13T01:27:10.124Z,4.93
2023-05-13T01:29:38.474Z,5.33
2023-05-13T01:32:07.947Z,5.70
2023-05-13T01:34:36.875Z,5.90
2023-05-13T01:37:05.309Z,6.17
2023-05-13T01:39:38.239Z,5.60
2023-05-13T01:42:06.452Z,5.57
2023-05-13T01:44:34.283Z,5.90
2023-05-13T01:47:02.091Z,5.13
2023-05-13T01:49:29.872Z,5.17
2023-05-13T01:51:57.760Z,5.90
2023-05-13T01:54:25.768Z,5.80
2023-05-13T01:56:54.924Z,5.37
2023-05-13T01:59:22.860Z,6.40
2023-05-13T02:01:50.739Z,6.30
2023-05-13T02:04:18.592Z,6.37
2023-05-13T02:06:46.475Z,6.33
2023-05-13T02:09:14.324Z,6.70
2023-05-13T02:11:42.240Z,8.13
2023-05-13T02:14:11.370Z,6.80
2023-05-13T02:16:39.259Z,7.83
2023-05-13T02:19:07.357Z,7.47
2023-05-13T02:21:35.333Z,7.40
2023-05-13T02:24:03.169Z,6.70
2023-05-13T02:26:31.114Z,6.77
2023-05-13T02:28:58.920Z,7.70
2023-05-13T02:31:28.156Z,7.40
2023-05-13T02:33:55.929Z,7.57
2023-05-13T02:36:24.468Z,7.93
2023-05-13T02:38:52.255Z,6.87
2023-05-13T02:41:20.035Z,7.83
2023-05-13T02:43:47.765Z,8.77
2023-05-13T02:46:15.545Z,7.27
2023-05-13T02:48:44.662Z,8.60
2023-05-13T02:51:12.448Z,7.77
2023-05-13T02:53:40.204Z,7.50
2023-05-13T02:56:08.198Z,7.80
2023-05-13T02:58:36.141Z,6.83
2023-05-13T03:01:03.980Z,7.83
2023-05-13T03:03:31.965Z,6.70
2023-05-13T03:06:01.368Z,8.27
2023-05-13T03:08:29.144Z,8.30
2023-05-13T03:10:56.904Z,9.23
2023-05-13T03:13:24.654Z,7.27
2023-05-13T03:15:52.473Z,7.90
2023-05-13T03:18:20.529Z,8.00
2023-05-13T03:20:48.260Z,7.80
2023-05-13T03:23:17.388Z,7.70
2023-05-13T03:25:45.216Z,7.77
2023-05-13T03:28:13.006Z,7.10
2023-05-13T03:30:40.786Z,8.27
2023-05-13T03:33:09.275Z,7.57
2023-05-13T03:35:37.137Z,7.57
2023-05-13T03:38:04.927Z,7.80
2023-05-13T03:40:34.008Z,7.20
2023-05-13T03:43:01.810Z,7.30
2023-05-13T03:45:29.616Z,8.60
2023-05-13T03:47:57.582Z,7.40
2023-05-13T03:50:25.385Z,7.40
2023-05-13T03:52:53.177Z,8.50
2023-05-13T03:55:21.368Z,8.47
2023-05-13T03:57:50.596Z,8.90
2023-05-13T04:00:18.582Z,8.93
2023-05-13T04:02:46.576Z,8.77
2023-05-13T04:05:14.663Z,9.90
2023-05-13T04:07:42.687Z,9.43
2023-05-13T04:10:15.178Z,9.70
2023-05-13T04:12:44.545Z,8.80
2023-05-13T04:15:13.759Z,10.00
2023-05-13T04:17:41.902Z,10.87
2023-05-13T04:20:10.800Z,9.50
2023-05-13T04:22:38.602Z,9.57
2023-05-13T04:25:07.198Z,9.80
2023-05-13T04:27:35.001Z,9.90
2023-05-13T04:30:02.942Z,9.70
2023-05-13T04:32:32.306Z,11.30
2023-05-13T04:35:00.430Z,10.43
2023-05-13T04:37:28.601Z,11.17
2023-05-13T04:39:56.396Z,11.13
2023-05-13T04:42:24.217Z,10.77
2023-05-13T04:44:51.988Z,10.97
2023-05-13T04:47:19.799Z,12.70
2023-05-13T04:49:48.930Z,11.03
2023-05-13T04:52:17.137Z,11.80
2023-05-13T04:54:44.915Z,12.20
2023-05-13T04:57:12.702Z,9.77
2023-05-13T04:59:40.459Z,11.27
2023-05-13T05:02:08.281Z,11.67
2023-05-13T05:04:36.124Z,11.37
2023-05-13T05:07:05.853Z,11.23
2023-05-13T05:09:33.631Z,9.70
2023-05-13T05:12:01.381Z,10.53
2023-05-13T05:14:29.135Z,10.20
2023-05-13T05:16:56.943Z,10.47
2023-05-13T05:19:24.823Z,10.50
2023-05-13T05:21:53.019Z,10.70
2023-05-13T05:24:22.127Z,13.03
2023-05-13T05:26:49.904Z,9.93
2023-05-13T05:29:17.667Z,10.43
2023-05-13T05:31:45.615Z,9.80
2023-05-13T05:34:13.449Z,10.90
2023-05-13T05:36:41.282Z,8.53
2023-05-13T05:39:09.096Z,9.50
2023-05-13T05:41:38.355Z,8.70
2023-05-13T05:44:06.221Z,8.23
2023-05-13T05:46:34.435Z,8.87
2023-05-13T05:49:03.494Z,8.60
2023-05-13T05:51:31.325Z,8.83
2023-05-13T05:53:59.111Z,7.90
2023-05-13T05:56:26.981Z,8.23
2023-05-13T05:58:56.499Z,8.50
2023-05-13T06:01:24.369Z,9.50
2023-05-13T06:03:54.786Z,7.33
2023-05-13T06:06:22.927Z,7.73
2023-05-13T06:08:50.738Z,8.70
2023-05-13T06:11:18.589Z,8.00
2023-05-13T06:13:46.492Z,7.10
2023-05-13T06:16:15.708Z,7.80
2023-05-13T06:18:43.788Z,7.53
2023-05-13T06:21:11.706Z,8.03
2023-05-13T06:23:39.850Z,7.67
2023-05-13T06:26:07.772Z,7.00
2023-05-13T06:28:35.680Z,5.90
2023-05-13T06:31:03.536Z,7.17
2023-05-13T06:33:32.794Z,6.43
2023-05-13T06:36:00.740Z,5.80
2023-05-13T06:38:28.617Z,6.27
2023-05-13T06:40:56.394Z,6.77
2023-05-13T06:43:24.203Z,5.53
2023-05-13T06:45:51.976Z,7.57
2023-05-13T06:48:19.779Z,7.00
2023-05-13T06:50:49.716Z,7.97
2023-05-13T06:53:17.582Z,7.37
2023-05-13T06:55:45.379Z,6.80
2023-05-13T06:58:13.195Z,7.80
2023-05-13T07:00:41.999Z,6.53
2023-05-13T07:03:09.833Z,6.23
2023-05-13T07:05:37.699Z,6.50
2023-05-13T07:08:08.443Z,6.00
2023-05-13T07:10:36.727Z,6.30
2023-05-13T07:13:05.078Z,5.93
2023-05-13T07:15:32.858Z,5.77
2023-05-13T07:18:00.737Z,5.57
2023-05-13T07:20:28.668Z,5.77
2023-05-13T07:22:56.465Z,7.50
2023-05-13T07:25:25.659Z,8.70
2023-05-13T07:27:53.443Z,6.17
2023-05-13T07:30:21.723Z,7.00
2023-05-13T07:32:50.913Z,6.97
2023-05-13T07:35:19.877Z,6.30
2023-05-13T07:37:47.897Z,6.13
2023-05-13T07:40:15.733Z,7.37
2023-05-13T07:42:44.912Z,7.60
2023-05-13T07:45:12.928Z,5.80
2023-05-13T07:47:42.945Z,6.87
2023-05-13T07:50:12.403Z,6.63
2023-05-13T07:52:40.432Z,7.00
2023-05-13T07:55:10.643Z,6.83
2023-05-13T07:57:38.462Z,6.83
2023-05-13T08:00:08.996Z,6.77
2023-05-13T08:02:39.259Z,6.60
2023-05-13T08:05:08.153Z,6.20
2023-05-13T08:07:36.410Z,5.50
2023-05-13T08:10:04.527Z,6.20
2023-05-13T08:12:32.271Z,5.70
2023-05-13T08:15:00.006Z,5.33
2023-05-13T08:17:29.156Z,6.00
2023-05-13T08:19:56.918Z,5.50
2023-05-13T08:22:33.084Z,5.43
2023-05-13T08:25:01.127Z,5.20
2023-05-13T08:27:28.995Z,5.07
2023-05-13T08:29:56.775Z,4.90
2023-05-13T08:32:24.562Z,6.37
2023-05-13T08:34:54.092Z,5.13
2023-05-13T08:37:21.876Z,4.73
2023-05-13T08:39:49.651Z,4.60
2023-05-13T08:42:19.165Z,5.10
2023-05-13T08:44:49.241Z,4.67
2023-05-13T08:47:26.864Z,4.80
2023-05-13T08:49:56.397Z,6.10
2023-05-13T08:52:24.617Z,5.30
2023-05-13T08:54:52.413Z,5.10
2023-05-13T08:57:20.487Z,4.40
2023-05-13T08:59:48.266Z,5.10
2023-05-13T09:02:16.239Z,4.60
2023-05-13T09:04:45.381Z,4.30
2023-05-13T09:07:14.605Z,4.47
2023-05-13T09:09:42.674Z,4.40
2023-05-13T09:12:10.509Z,4.60
2023-05-13T09:14:39.935Z,4.23
2023-05-13T09:17:08.478Z,5.07
2023-05-13T09:19:36.977Z,4.53
2023-05-13T09:22:04.913Z,4.47
2023-05-13T09:24:34.207Z,3.90
2023-05-13T09:27:02.831Z,4.30
2023-05-13T09:29:30.630Z,4.90
2023-05-13T09:32:00.363Z,4.40
2023-05-13T09:34:30.143Z,4.77
2023-05-13T09:37:02.584Z,4.90
2023-05-13T09:39:33.865Z,4.00
2023-05-13T09:42:05.215Z,4.17
2023-05-13T09:44:33.850Z,3.97
2023-05-13T09:47:04.158Z,4.17
2023-05-13T09:49:32.822Z,4.63
2023-05-13T09:52:00.642Z,4.20
2023-05-13T09:54:35.480Z,4.33
2023-05-13T09:57:05.673Z,4.47
2023-05-13T09:59:33.762Z,4.40
2023-05-13T10:02:02.492Z,4.33
2023-05-13T10:04:31.046Z,4.40
2023-05-13T10:06:59.922Z,4.80
2023-05-13T10:09:29.767Z,4.20
2023-05-13T10:11:59.738Z,4.07
2023-05-13T10:14:29.096Z,3.30
2023-05-13T10:16:58.168Z,4.10
2023-05-13T10:19:27.510Z,4.73
2023-05-13T10:21:55.600Z,3.90
2023-05-13T10:24:24.031Z,4.20
2023-05-13T10:26:54.072Z,4.80
2023-05-13T10:29:23.765Z,3.73
2023-05-13T10:31:53.669Z,3.90
2023-05-13T10:34:23.121Z,3.90
2023-05-13T10:37:04.671Z,3.77
2023-05-13T10:39:55.445Z,3.00
2023-05-13T10:42:43.853Z,3.90
2023-05-13T10:45:12.478Z,3.43
2023-05-13T10:47:41.693Z,3.63
2023-05-13T10:50:24.765Z,3.13
2023-05-13T10:52:57.070Z,3.37
2023-05-13T10:55:27.168Z,3.60
2023-05-13T10:58:14.656Z,3.23
2023-05-13T11:00:43.896Z,2.80
2023-05-13T11:03:14.904Z,2.33
2023-05-13T11:05:45.760Z,2.50
2023-05-13T11:08:13.760Z,3.17
2023-05-13T11:10:42.072Z,3.13
2023-05-13T11:13:22.482Z,3.60
2023-05-13T11:15:51.899Z,3.10
2023-05-13T11:18:21.723Z,2.87
2023-05-13T11:20:54.434Z,2.63
2023-05-13T11:23:22.900Z,2.70
2023-05-13T11:26:12.808Z,2.50
2023-05-13T11:28:57.530Z,2.50
2023-05-13T11:31:26.958Z,2.63
2023-05-13T11:34:09.427Z,2.27
2023-05-13T11:36:39.066Z,2.37
2023-05-13T11:39:08.615Z,2.50
2023-05-13T11:41:37.965Z,2.70
2023-05-13T11:44:07.543Z,2.57
2023-05-13T11:46:36.142Z,2.50
2023-05-13T11:49:08.106Z,2.60
2023-05-13T11:51:35.914Z,2.30
2023-05-13T11:54:04.509Z,1.73
2023-05-13T11:56:32.288Z,2.10
2023-05-13T11:59:15.610Z,2.10
2023-05-13T12:01:43.482Z,1.93
2023-05-13T12:04:12.591Z,2.20
2023-05-13T12:06:46.756Z,2.10
2023-05-13T12:09:14.613Z,1.60
2023-05-13T12:11:43.305Z,1.93
2023-05-13T12:14:11.155Z,1.93
2023-05-13T12:16:39.038Z,1.77
2023-05-13T12:19:07.319Z,1.90
2023-05-13T12:21:38.104Z,1.90
2023-05-13T12:24:18.625Z,1.43
2023-05-13T12:26:46.596Z,2.00
2023-05-13T12:29:14.910Z,1.70
2023-05-13T12:31:43.955Z,2.40
2023-05-13T12:34:11.784Z,1.57
2023-05-13T12:36:40.972Z,2.10
2023-05-13T12:39:10.142Z,1.97
2023-05-13T12:41:39.663Z,2.10
2023-05-13T12:44:10.215Z,1.80
2023-05-13T12:46:39.582Z,1.87
2023-05-13T12:49:11.948Z,2.27
2023-05-13T12:51:41.137Z,2.00
2023-05-13T12:54:08.887Z,1.73
2023-05-13T12:56:36.695Z,2.20
2023-05-13T12:59:04.463Z,1.80
2023-05-13T13:01:32.461Z,2.10
2023-05-13T13:04:00.397Z,1.93
2023-05-13T13:06:28.291Z,1.97
2023-05-13T13:08:57.422Z,1.80
2023-05-13T13:11:25.182Z,1.90
2023-05-13T13:13:53.383Z,1.97
2023-05-13T13:16:22.140Z,1.60
2023-05-13T13:18:53.423Z,1.60
2023-05-13T13:21:23.362Z,1.73
2023-05-13T13:23:51.152Z,1.90
2023-05-13T13:26:20.919Z,1.90
2023-05-13T13:28:48.666Z,1.80
2023-05-13T13:31:16.580Z,1.90
2023-05-13T13:33:44.337Z,1.60
2023-05-13T13:36:12.248Z,1.70
2023-05-13T13:38:40.069Z,1.50
2023-05-13T13:41:08.567Z,1.60
2023-05-13T13:43:38.134Z,1.80
2023-05-13T13:46:06.071Z,1.43
2023-05-13T13:48:34.019Z,1.73
2023-05-13T13:51:01.795Z,1.60
2023-05-13T13:53:29.581Z,1.70
2023-05-13T13:55:57.508Z,1.87
2023-05-13T13:58:25.333Z,1.77
2023-05-13T14:00:54.538Z,1.60
2023-05-13T14:03:22.459Z,1.80
2023-05-13T14:05:51.590Z,1.60
2023-05-13T14:08:19.401Z,1.80
2023-05-13T14:10:47.261Z,1.63
2023-05-13T14:13:15.077Z,1.63
2023-05-13T14:15:42.902Z,1.90
2023-05-13T14:18:12.077Z,1.83
2023-05-13T14:20:39.879Z,1.70
2023-05-13T14:23:07.645Z,2.03
2023-05-13T14:25:35.934Z,1.90
2023-05-13T14:28:03.668Z,1.93
2023-05-13T14:30:31.473Z,1.70
2023-05-13T14:33:00.479Z,1.70
2023-05-13T14:35:29.838Z,1.77
2023-05-13T14:37:57.836Z,1.60
2023-05-13T14:40:25.696Z,2.30
2023-05-13T14:42:53.855Z,1.67
2023-05-13T14:45:22.631Z,1.80
2023-05-13T14:47:53.858Z,1.80
2023-05-13T14:50:22.268Z,1.80
2023-05-13T14:52:51.566Z,1.90
2023-05-13T14:55:19.411Z,1.60
2023-05-13T14:57:47.176Z,1.60
2023-05-13T15:00:15.987Z,1.80
2023-05-13T15:02:44.006Z,1.70
2023-05-13T15:05:12.466Z,1.90
2023-05-13T15:07:40.438Z,2.10
2023-05-13T15:10:10.733Z,2.17
2023-05-13T15:12:38.582Z,1.83
2023-05-13T15:15:07.801Z,2.20
2023-05-13T15:17:35.600Z,2.40
2023-05-13T15:20:03.680Z,2.10
2023-05-13T15:22:33.324Z,1.67
2023-05-13T15:25:01.984Z,1.40
2023-05-13T15:27:31.210Z,1.93
2023-05-13T15:29:59.192Z,1.70
2023-05-13T15:32:27.052Z,1.97
2023-05-13T15:34:54.880Z,2.47
2023-05-13T15:37:22.780Z,1.40
2023-05-13T15:39:50.614Z,1.63
2023-05-13T15:42:18.639Z,1.73
2023-05-13T15:44:47.978Z,1.50
2023-05-13T15:47:16.264Z,1.63
2023-05-13T15:49:44.126Z,1.87
2023-05-13T15:52:11.978Z,1.50
2023-05-13T15:54:39.777Z,1.30
2023-05-13T15:57:07.717Z,1.80
2023-05-13T15:59:36.391Z,1.50
2023-05-13T16:02:05.833Z,1.93
2023-05-13T16:04:33.733Z,1.60
2023-05-13T16:07:01.626Z,1.40
2023-05-13T16:09:29.413Z,1.70
2023-05-13T16:11:57.233Z,1.30
2023-05-13T16:14:25.288Z,1.57
2023-05-13T16:16:53.092Z,1.63
2023-05-13T16:19:22.276Z,1.37
2023-05-13T16:21:50.071Z,1.60
2023-05-13T16:24:17.837Z,1.40
2023-05-13T16:26:45.852Z,1.33
2023-05-13T16:29:13.901Z,1.33
2023-05-13T16:31:42.221Z,1.30
2023-05-13T16:34:10.228Z,1.30
2023-05-13T16:36:39.397Z,1.43
2023-05-13T16:39:07.502Z,1.60
2023-05-13T16:41:36.468Z,1.20
2023-05-13T16:44:04.470Z,1.13
2023-05-13T16:46:35.361Z,1.30
2023-05-13T16:49:03.412Z,1.13
2023-05-13T16:51:31.198Z,1.10
2023-05-13T16:54:00.424Z,1.00
2023-05-13T16:56:28.209Z,1.13
2023-05-13T16:58:56.015Z,1.10
2023-05-13T17:01:23.910Z,1.17
2023-05-13T17:03:51.724Z,1.40
2023-05-13T17:06:19.724Z,1.27
2023-05-13T17:08:47.687Z,1.10
2023-05-13T17:11:17.479Z,1.20
2023-05-13T17:13:45.531Z,1.30
2023-05-13T17:16:13.364Z,1.10
2023-05-13T17:18:41.296Z,1.07
2023-05-13T17:21:09.276Z,1.10
2023-05-13T17:23:37.133Z,1.10
2023-05-13T17:26:05.103Z,1.00
2023-05-13T17:28:34.222Z,1.10
2023-05-13T17:31:02.315Z,0.87
2023-05-13T17:33:30.204Z,1.07
2023-05-13T17:35:57.965Z,1.10
2023-05-13T17:38:25.800Z,1.27
2023-05-13T17:40:53.911Z,1.20
2023-05-13T17:43:21.694Z,1.30
2023-05-13T17:45:50.846Z,1.00
2023-05-13T17:48:24.487Z,1.27
2023-05-13T17:50:52.763Z,1.27
2023-05-13T17:53:20.766Z,1.10
2023-05-13T17:55:49.454Z,1.17
2023-05-13T17:58:17.477Z,1.30
2023-05-13T18:00:45.342Z,1.00
2023-05-13T18:03:14.602Z,1.23
2023-05-13T18:05:43.343Z,1.20
2023-05-13T18:08:11.641Z,1.10
2023-05-13T18:10:39.565Z,1.20
2023-05-13T18:13:07.309Z,1.30
2023-05-13T18:15:35.131Z,1.20
2023-05-13T18:18:03.536Z,1.17
2023-05-13T18:20:32.972Z,1.20
2023-05-13T18:23:01.033Z,1.40
2023-05-13T18:25:28.802Z,1.17
2023-05-13T18:27:56.592Z,1.20
2023-05-13T18:30:24.654Z,1.20
2023-05-13T18:32:52.761Z,1.80
2023-05-13T18:35:21.388Z,1.30
2023-05-13T18:37:50.591Z,1.10
2023-05-13T18:40:18.520Z,1.20
2023-05-13T18:42:46.326Z,1.30
2023-05-13T18:45:14.406Z,1.20
2023-05-13T18:47:42.216Z,1.17
2023-05-13T18:50:11.143Z,1.30
2023-05-13T18:52:40.087Z,1.20
2023-05-13T18:55:09.939Z,1.60
2023-05-13T18:57:37.871Z,1.60
2023-05-13T19:00:06.892Z,1.10
2023-05-13T19:02:34.950Z,1.60
2023-05-13T19:05:02.922Z,1.23
2023-05-13T19:07:30.721Z,1.47
2023-05-13T19:09:58.568Z,1.80
2023-05-13T19:12:27.949Z,1.30
2023-05-13T19:14:55.896Z,1.53
2023-05-13T19:17:23.670Z,1.30
2023-05-13T19:19:51.516Z,1.20
2023-05-13T19:22:19.295Z,1.50
2023-05-13T19:24:47.075Z,1.47
2023-05-13T19:27:14.875Z,1.50
2023-05-13T19:29:44.043Z,1.70
2023-05-13T19:32:11.816Z,1.80
2023-05-13T19:34:39.600Z,2.10
2023-05-13T19:37:07.461Z,1.80
2023-05-13T19:39:35.244Z,1.80
2023-05-13T19:42:03.061Z,1.80
2023-05-13T19:44:31.812Z,1.70
2023-05-13T19:47:01.119Z,1.57
2023-05-13T19:49:28.907Z,1.70
2023-05-13T19:51:57.371Z,1.73
2023-05-13T19:54:25.190Z,1.30
2023-05-13T19:56:53.843Z,1.70
2023-05-13T19:59:24.451Z,1.23
2023-05-13T20:01:52.512Z,1.60
2023-05-13T20:04:25.394Z,1.60
2023-05-13T20:06:53.674Z,1.67
2023-05-13T20:09:21.437Z,1.50
2023-05-13T20:11:49.193Z,2.03
2023-05-13T20:14:22.841Z,2.10
2023-05-13T20:16:50.726Z,1.50
2023-05-13T20:19:18.569Z,2.13
2023-05-13T20:21:47.891Z,2.07
2023-05-13T20:24:15.680Z,2.27
2023-05-13T20:26:43.463Z,2.30
2023-05-13T20:29:12.444Z,2.53
2023-05-13T20:31:42.428Z,2.70
2023-05-13T20:34:10.855Z,2.60
2023-05-13T20:36:39.180Z,2.40
2023-05-13T20:39:08.452Z,2.30
2023-05-13T20:41:36.191Z,2.80
2023-05-13T20:44:03.934Z,2.70
2023-05-13T20:46:31.769Z,2.70
2023-05-13T20:48:59.779Z,2.53
2023-05-13T20:51:27.569Z,2.40
2023-05-13T20:53:55.491Z,3.27
2023-05-13T20:56:24.600Z,2.67
2023-05-13T20:58:53.379Z,3.13
2023-05-13T21:01:21.158Z,3.00
2023-05-13T21:03:50.130Z,3.03
2023-05-13T21:06:18.060Z,3.30
2023-05-13T21:08:45.875Z,3.03
2023-05-13T21:11:13.625Z,2.83
2023-05-13T21:13:43.541Z,2.97
2023-05-13T21:16:11.648Z,3.37
2023-05-13T21:18:39.461Z,3.70
2023-05-13T21:21:08.504Z,4.43
2023-05-13T21:23:36.915Z,3.93
2023-05-13T21:26:06.072Z,4.27
2023-05-13T21:28:34.208Z,3.97
2023-05-13T21:31:03.480Z,3.43
2023-05-13T21:33:31.987Z,3.50
2023-05-13T21:35:59.779Z,3.90
2023-05-13T21:38:28.574Z,3.97
2023-05-13T21:40:56.301Z,4.07
2023-05-13T21:43:24.084Z,4.00
2023-05-13T21:45:51.810Z,3.93
2023-05-13T21:48:21.055Z,4.63
2023-05-13T21:50:48.847Z,3.70
2023-05-13T21:53:16.650Z,4.63
2023-05-13T21:55:45.418Z,5.33
2023-05-13T21:58:13.171Z,5.13
2023-05-13T22:00:41.714Z,5.80
2023-05-13T22:03:09.668Z,5.10
2023-05-13T22:05:44.110Z,5.20
2023-05-13T22:08:12.697Z,5.50
2023-05-13T22:10:40.894Z,6.40
2023-05-13T22:13:08.664Z,7.30
2023-05-13T22:15:36.500Z,6.57
2023-05-13T22:18:04.546Z,6.20
2023-05-13T22:20:32.424Z,6.90
2023-05-13T22:23:01.517Z,6.00
2023-05-13T22:25:29.273Z,5.30
2023-05-13T22:27:57.105Z,6.17
2023-05-13T22:30:25.093Z,5.80
2023-05-13T22:32:53.315Z,6.10
2023-05-13T22:35:21.288Z,5.50
2023-05-13T22:37:50.106Z,6.10
2023-05-13T22:40:19.501Z,5.13
2023-05-13T22:42:47.265Z,5.83
2023-05-13T22:45:15.119Z,6.63
2023-05-13T22:47:42.955Z,5.90
2023-05-13T22:50:12.174Z,6.30
2023-05-13T22:52:40.075Z,5.60
2023-05-13T22:55:08.870Z,5.43
2023-05-13T22:57:38.015Z,6.80
2023-05-13T23:02:41.229Z,6.40
2023-05-13T23:05:09.873Z,6.90
2023-05-13T23:07:37.701Z,7.20
2023-05-13T23:10:06.341Z,7.80
2023-05-13T23:12:34.250Z,6.30
2023-05-13T23:15:03.971Z,8.47
2023-05-13T23:17:31.835Z,8.57
2023-05-13T23:19:59.574Z,7.60
2023-05-13T23:22:27.350Z,6.87
2023-05-13T23:24:55.170Z,7.20
2023-05-13T23:27:22.953Z,6.87
2023-05-13T23:29:50.730Z,7.13
2023-05-13T23:32:19.906Z,7.07
2023-05-13T23:34:47.731Z,6.77
2023-05-13T23:37:16.322Z,8.10
2023-05-13T23:39:44.154Z,7.80
2023-05-13T23:42:11.933Z,7.70
2023-05-13T23:44:40.137Z,6.30
2023-05-13T23:47:07.983Z,7.80
2023-05-13T23:49:37.086Z,6.90
2023-05-13T23:52:05.122Z,7.50
2023-05-13T23:54:32.909Z,6.43
2023-05-13T23:57:00.699Z,7.50
2023-05-13T23:59:28.440Z,6.37
